sensor_id;sensor_type;location;lat;lon;timestamp;pressure;altitude;pressure_sealevel;temperature;humidity
37486;BME280;23341;50.296;18.960;2023-03-21T00:03:10;40155.66;;;-144.43;100.00
37486;BME280;23341;50.296;18.960;2023-03-21T00:08:16;40217.47;;;-144.43;100.00
37486;BME280;23341;50.296;18.960;2023-03-21T00:13:20;40087.88;;;-144.43;100.00
37486;BME280;23341;50.296;18.960;2023-03-21T00:18:24;39924.38;;;-144.43;100.00
37486;BME280;23341;50.296;18.960;2023-03-21T00:23:32;39876.53;;;-144.43;100.00
37486;BME280;23341;50.296;18.960;2023-03-21T00:28:37;39844.63;;;-144.43;100.00
37486;BME280;23341;50.296;18.960;2023-03-21T00:33:42;39808.72;;;-144.43;100.00
37486;BME280;23341;50.296;18.960;2023-03-21T00:38:47;39778.81;;;-144.43;100.00
37486;BME280;23341;50.296;18.960;2023-03-21T00:43:52;39768.84;;;-144.43;100.00
37486;BME280;23341;50.296;18.960;2023-03-21T00:48:57;39728.97;;;-144.43;100.00
37486;BME280;23341;50.296;18.960;2023-03-21T00:54:03;39746.94;;;-144.43;100.00
37486;BME280;23341;50.296;18.960;2023-03-21T00:59:09;39669.16;;;-144.43;100.00
37486;BME280;23341;50.296;18.960;2023-03-21T01:04:13;39681.13;;;-144.43;100.00
37486;BME280;23341;50.296;18.960;2023-03-21T01:09:22;39679.13;;;-144.43;100.00
37486;BME280;23341;50.296;18.960;2023-03-21T01:14:26;39693.09;;;-144.43;100.00
37486;BME280;23341;50.296;18.960;2023-03-21T01:19:31;39671.16;;;-144.43;100.00
37486;BME280;23341;50.296;18.960;2023-03-21T01:24:54;39703.06;;;-144.43;100.00
37486;BME280;23341;50.296;18.960;2023-03-21T01:30:20;39669.16;;;-144.43;100.00
37486;BME280;23341;50.296;18.960;2023-03-21T01:35:26;39663.19;;;-144.43;100.00
37486;BME280;23341;50.296;18.960;2023-03-21T01:40:40;39693.09;;;-144.43;100.00
37486;BME280;23341;50.296;18.960;2023-03-21T01:46:25;39689.09;;;-144.43;100.00
37486;BME280;23341;50.296;18.960;2023-03-21T01:52:10;39679.13;;;-144.43;100.00
37486;BME280;23341;50.296;18.960;2023-03-21T01:57:39;39687.13;;;-144.43;100.00
37486;BME280;23341;50.296;18.960;2023-03-21T02:03:07;39643.25;;;-144.43;100.00
37486;BME280;23341;50.296;18.960;2023-03-21T02:08:33;39683.13;;;-144.43;100.00
37486;BME280;23341;50.296;18.960;2023-03-21T02:13:47;39677.16;;;-144.43;100.00
37486;BME280;23341;50.296;18.960;2023-03-21T02:19:17;39697.09;;;-144.43;100.00
37486;BME280;23341;50.296;18.960;2023-03-21T02:25:00;39681.13;;;-144.43;100.00
37486;BME280;23341;50.296;18.960;2023-03-21T02:30:40;39691.09;;;-144.43;100.00
37486;BME280;23341;50.296;18.960;2023-03-21T02:36:21;39629.28;;;-144.43;100.00
37486;BME280;23341;50.296;18.960;2023-03-21T02:41:37;39673.16;;;-144.43;100.00
37486;BME280;23341;50.296;18.960;2023-03-21T02:46:50;39663.19;;;-144.43;100.00
37486;BME280;23341;50.296;18.960;2023-03-21T02:52:08;39697.09;;;-144.43;100.00
37486;BME280;23341;50.296;18.960;2023-03-21T02:57:26;39689.09;;;-144.43;100.00
37486;BME280;23341;50.296;18.960;2023-03-21T03:02:46;39667.19;;;-144.43;100.00
37486;BME280;23341;50.296;18.960;2023-03-21T03:08:12;39701.06;;;-144.43;100.00
37486;BME280;23341;50.296;18.960;2023-03-21T03:13:37;39727.00;;;-144.43;100.00
37486;BME280;23341;50.296;18.960;2023-03-21T03:18:50;39611.34;;;-144.43;100.00
37486;BME280;23341;50.296;18.960;2023-03-21T03:23:57;39649.22;;;-144.43;100.00
37486;BME280;23341;50.296;18.960;2023-03-21T03:29:08;39643.25;;;-144.43;100.00
37486;BME280;23341;50.296;18.960;2023-03-21T03:34:17;39681.13;;;-144.43;100.00
37486;BME280;23341;50.296;18.960;2023-03-21T03:39:28;39655.22;;;-144.43;100.00
37486;BME280;23341;50.296;18.960;2023-03-21T03:44:36;39661.19;;;-144.43;100.00
37486;BME280;23341;50.296;18.960;2023-03-21T03:49:47;39697.09;;;-144.43;100.00
37486;BME280;23341;50.296;18.960;2023-03-21T03:54:54;39635.28;;;-144.43;100.00
37486;BME280;23341;50.296;18.960;2023-03-21T04:00:01;39697.09;;;-144.43;100.00
37486;BME280;23341;50.296;18.960;2023-03-21T04:05:19;39641.25;;;-144.43;100.00
37486;BME280;23341;50.296;18.960;2023-03-21T04:10:23;39609.34;;;-144.43;100.00
37486;BME280;23341;50.296;18.960;2023-03-21T04:15:30;39627.31;;;-144.43;100.00
37486;BME280;23341;50.296;18.960;2023-03-21T04:20:45;39607.38;;;-144.43;100.00
37486;BME280;23341;50.296;18.960;2023-03-21T04:25:51;39541.56;;;-144.43;100.00
37486;BME280;23341;50.296;18.960;2023-03-21T04:31:18;39625.31;;;-144.43;100.00
37486;BME280;23341;50.296;18.960;2023-03-21T04:36:36;39641.25;;;-144.43;100.00
37486;BME280;23341;50.296;18.960;2023-03-21T04:41:45;39613.34;;;-144.43;100.00
37486;BME280;23341;50.296;18.960;2023-03-21T04:46:51;39585.44;;;-144.43;100.00
37486;BME280;23341;50.296;18.960;2023-03-21T04:51:55;39561.50;;;-144.43;100.00
37486;BME280;23341;50.296;18.960;2023-03-21T04:57:00;39677.16;;;-144.43;100.00
37486;BME280;23341;50.296;18.960;2023-03-21T05:02:05;39812.72;;;-144.43;100.00
37486;BME280;23341;50.296;18.960;2023-03-21T05:07:10;39832.66;;;-144.43;100.00
37486;BME280;23341;50.296;18.960;2023-03-21T05:12:14;39814.72;;;-144.43;100.00
37486;BME280;23341;50.296;18.960;2023-03-21T05:17:22;39746.94;;;-144.43;100.00
37486;BME280;23341;50.296;18.960;2023-03-21T05:22:27;39756.91;;;-144.43;100.00
37486;BME280;23341;50.296;18.960;2023-03-21T05:27:32;39840.63;;;-144.43;100.00
37486;BME280;23341;50.296;18.960;2023-03-21T05:32:44;39968.25;;;-144.43;100.00
37486;BME280;23341;50.296;18.960;2023-03-21T05:37:48;39876.53;;;-144.43;100.00
37486;BME280;23341;50.296;18.960;2023-03-21T05:42:53;39976.22;;;-144.43;100.00
37486;BME280;23341;50.296;18.960;2023-03-21T05:48:00;40303.22;;;-144.43;100.00
37486;BME280;23341;50.296;18.960;2023-03-21T05:53:11;40436.84;;;-144.43;100.00
37486;BME280;23341;50.296;18.960;2023-03-21T05:58:16;40500.66;;;-144.43;100.00
37486;BME280;23341;50.296;18.960;2023-03-21T06:03:27;40570.44;;;-144.43;100.00
37486;BME280;23341;50.296;18.960;2023-03-21T06:08:41;40538.53;;;-144.43;100.00
37486;BME280;23341;50.296;18.960;2023-03-21T06:13:46;40402.94;;;-144.43;100.00
37486;BME280;23341;50.296;18.960;2023-03-21T06:18:52;40486.69;;;-144.43;100.00
37486;BME280;23341;50.296;18.960;2023-03-21T06:24:16;40426.84;;;-144.43;100.00
37486;BME280;23341;50.296;18.960;2023-03-21T06:29:21;40474.72;;;-144.43;100.00
37486;BME280;23341;50.296;18.960;2023-03-21T06:34:28;40392.97;;;-144.43;100.00
37486;BME280;23341;50.296;18.960;2023-03-21T06:39:33;40386.97;;;-144.43;100.00
37486;BME280;23341;50.296;18.960;2023-03-21T06:44:37;40177.59;;;-144.43;100.00
37486;BME280;23341;50.296;18.960;2023-03-21T06:49:48;40307.22;;;-144.43;100.00
37486;BME280;23341;50.296;18.960;2023-03-21T06:54:53;40375.00;;;-144.43;100.00
37486;BME280;23341;50.296;18.960;2023-03-21T06:59:58;40367.03;;;-144.43;100.00
37486;BME280;23341;50.296;18.960;2023-03-21T07:05:05;40558.47;;;-144.43;100.00
37486;BME280;23341;50.296;18.960;2023-03-21T07:10:11;40548.50;;;-144.43;100.00
37486;BME280;23341;50.296;18.960;2023-03-21T07:15:32;40522.56;;;-144.43;100.00
37486;BME280;23341;50.296;18.960;2023-03-21T07:20:45;40582.41;;;-144.43;100.00
37486;BME280;23341;50.296;18.960;2023-03-21T07:25:53;40628.28;;;-144.43;100.00
37486;BME280;23341;50.296;18.960;2023-03-21T07:30:58;40544.50;;;-144.43;100.00
37486;BME280;23341;50.296;18.960;2023-03-21T07:36:08;40564.47;;;-144.43;100.00
37486;BME280;23341;50.296;18.960;2023-03-21T07:41:14;40664.16;;;-144.43;100.00
37486;BME280;23341;50.296;18.960;2023-03-21T07:46:25;40823.72;;;-144.43;100.00
37486;BME280;23341;50.296;18.960;2023-03-21T07:51:31;40809.75;;;-144.43;100.00
37486;BME280;23341;50.296;18.960;2023-03-21T07:56:37;40861.59;;;-144.43;100.00
37486;BME280;23341;50.296;18.960;2023-03-21T08:01:41;40821.72;;;-144.43;100.00
37486;BME280;23341;50.296;18.960;2023-03-21T08:06:49;40771.84;;;-144.43;100.00
37486;BME280;23341;50.296;18.960;2023-03-21T08:11:53;40779.84;;;-144.43;100.00
37486;BME280;23341;50.296;18.960;2023-03-21T08:16:57;40931.41;;;-144.43;100.00
37486;BME280;23341;50.296;18.960;2023-03-21T08:22:03;41003.19;;;-144.43;100.00
37486;BME280;23341;50.296;18.960;2023-03-21T08:27:08;41007.19;;;-144.43;100.00
37486;BME280;23341;50.296;18.960;2023-03-21T08:32:13;41067.03;;;-144.43;100.00
37486;BME280;23341;50.296;18.960;2023-03-21T08:37:18;41328.31;;;-144.43;100.00
37486;BME280;23341;50.296;18.960;2023-03-21T08:42:22;41376.16;;;-144.43;100.00
37486;BME280;23341;50.296;18.960;2023-03-21T08:47:26;41432.03;;;-144.43;100.00
37486;BME280;23341;50.296;18.960;2023-03-21T08:52:32;41603.56;;;-144.43;100.00
37486;BME280;23341;50.296;18.960;2023-03-21T08:57:37;41539.72;;;-144.43;100.00
37486;BME280;23341;50.296;18.960;2023-03-21T09:02:43;41513.81;;;-144.43;100.00
37486;BME280;23341;50.296;18.960;2023-03-21T09:07:50;41561.69;;;-144.43;100.00
37486;BME280;23341;50.296;18.960;2023-03-21T09:12:55;41701.31;;;-144.43;100.00
37486;BME280;23341;50.296;18.960;2023-03-21T09:17:59;41669.38;;;-144.43;100.00
37486;BME280;23341;50.296;18.960;2023-03-21T09:23:16;41727.22;;;-144.43;100.00
37486;BME280;23341;50.296;18.960;2023-03-21T09:28:21;41797.06;;;-144.43;100.00
37486;BME280;23341;50.296;18.960;2023-03-21T09:33:26;41846.94;;;-144.43;100.00
37486;BME280;23341;50.296;18.960;2023-03-21T09:38:33;42040.44;;;-144.43;100.00
37486;BME280;23341;50.296;18.960;2023-03-21T09:43:48;42154.13;;;-144.43;100.00
37486;BME280;23341;50.296;18.960;2023-03-21T09:48:57;42497.28;;;-144.43;98.98
37486;BME280;23341;50.296;18.960;2023-03-21T09:54:06;42553.16;;;-144.43;99.70
37486;BME280;23341;50.296;18.960;2023-03-21T09:59:20;42517.25;;;-144.43;100.00
37486;BME280;23341;50.296;18.960;2023-03-21T10:04:26;42748.69;;;-144.43;97.80
37486;BME280;23341;50.296;18.960;2023-03-21T10:09:33;42800.56;;;-144.43;98.60
37486;BME280;23341;50.296;18.960;2023-03-21T10:14:43;42822.50;;;-144.43;96.45
37486;BME280;23341;50.296;18.960;2023-03-21T10:19:55;43006.09;;;-144.43;94.11
37486;BME280;23341;50.296;18.960;2023-03-21T10:25:03;42988.13;;;-144.43;95.29
37486;BME280;23341;50.296;18.960;2023-03-21T10:30:17;43055.97;;;-144.43;95.05
37486;BME280;23341;50.296;18.960;2023-03-21T10:35:23;43123.81;;;-144.43;92.63
37486;BME280;23341;50.296;18.960;2023-03-21T10:40:28;43097.88;;;-144.43;94.48
37486;BME280;23341;50.296;18.960;2023-03-21T10:45:35;43117.84;;;-144.43;93.21
37486;BME280;23341;50.296;18.960;2023-03-21T10:50:40;43231.56;;;-144.43;92.58
37486;BME280;23341;50.296;18.960;2023-03-21T10:55:49;43261.50;;;-144.43;93.22
37486;BME280;23341;50.296;18.960;2023-03-21T11:00:57;43283.47;;;-144.43;93.53
37486;BME280;23341;50.296;18.960;2023-03-21T11:06:06;43303.41;;;-144.43;92.58
37486;BME280;23341;50.296;18.960;2023-03-21T11:11:19;43365.28;;;-144.43;90.65
37486;BME280;23341;50.296;18.960;2023-03-21T11:16:28;43497.00;;;-144.43;91.03
37486;BME280;23341;50.296;18.960;2023-03-21T11:21:35;43391.22;;;-144.43;89.29
37486;BME280;23341;50.296;18.960;2023-03-21T11:26:42;43471.06;;;-144.43;85.00
37486;BME280;23341;50.296;18.960;2023-03-21T11:31:47;43598.78;;;-144.43;83.52
37486;BME280;23341;50.296;18.960;2023-03-21T11:36:57;43646.66;;;-144.43;84.71
37486;BME280;23341;50.296;18.960;2023-03-21T11:42:05;43744.47;;;-144.43;83.99
37486;BME280;23341;50.296;18.960;2023-03-21T11:47:10;43762.44;;;-144.43;84.81
37486;BME280;23341;50.296;18.960;2023-03-21T11:52:22;43794.34;;;-144.43;86.42
37486;BME280;23341;50.296;18.960;2023-03-21T11:57:40;43812.31;;;-144.43;87.32
37486;BME280;23341;50.296;18.960;2023-03-21T12:03:06;43854.22;;;-144.43;84.90
37486;BME280;23341;50.296;18.960;2023-03-21T12:08:25;43846.25;;;-144.43;87.27
37486;BME280;23341;50.296;18.960;2023-03-21T12:13:46;43890.16;;;-144.43;86.72
37486;BME280;23341;50.296;18.960;2023-03-21T12:19:12;43890.16;;;-144.43;85.57
37486;BME280;23341;50.296;18.960;2023-03-21T12:24:21;43906.13;;;-144.43;86.16
37486;BME280;23341;50.296;18.960;2023-03-21T12:29:44;43894.16;;;-144.43;88.34
37486;BME280;23341;50.296;18.960;2023-03-21T12:35:08;43742.47;;;-144.43;91.30
37486;BME280;23341;50.296;18.960;2023-03-21T12:40:29;43722.50;;;-144.43;89.78
37486;BME280;23341;50.296;18.960;2023-03-21T12:45:41;43740.47;;;-144.43;89.94
37486;BME280;23341;50.296;18.960;2023-03-21T12:50:52;43766.41;;;-144.43;88.88
37486;BME280;23341;50.296;18.960;2023-03-21T12:56:00;43766.41;;;-144.43;90.52
37486;BME280;23341;50.296;18.960;2023-03-21T13:01:08;43594.78;;;-144.43;93.88
37486;BME280;23341;50.296;18.960;2023-03-21T13:06:14;43678.59;;;-144.43;92.40
37486;BME280;23341;50.296;18.960;2023-03-21T13:11:24;43632.69;;;-144.43;91.19
37486;BME280;23341;50.296;18.960;2023-03-21T13:16:34;43686.59;;;-144.43;93.12
37486;BME280;23341;50.296;18.960;2023-03-21T13:21:49;43624.72;;;-144.43;96.96
37486;BME280;23341;50.296;18.960;2023-03-21T13:27:04;43588.78;;;-144.43;97.83
37486;BME280;23341;50.296;18.960;2023-03-21T13:32:15;43618.72;;;-144.43;96.71
37486;BME280;23341;50.296;18.960;2023-03-21T13:37:24;43640.69;;;-144.43;95.02
37486;BME280;23341;50.296;18.960;2023-03-21T13:42:32;43656.66;;;-144.43;95.46
37486;BME280;23341;50.296;18.960;2023-03-21T13:47:41;43618.72;;;-144.43;94.05
37486;BME280;23341;50.296;18.960;2023-03-21T13:53:18;43628.72;;;-144.43;91.26
37486;BME280;23341;50.296;18.960;2023-03-21T13:58:23;43642.69;;;-144.43;90.25
37486;BME280;23341;50.296;18.960;2023-03-21T14:03:36;43710.53;;;-144.43;89.24
37486;BME280;23341;50.296;18.960;2023-03-21T14:08:43;43604.75;;;-144.43;89.11
37486;BME280;23341;50.296;18.960;2023-03-21T14:13:49;43610.75;;;-144.43;88.72
37486;BME280;23341;50.296;18.960;2023-03-21T14:18:58;43720.50;;;-144.43;87.79
37486;BME280;23341;50.296;18.960;2023-03-21T14:24:04;43726.50;;;-144.43;88.78
37486;BME280;23341;50.296;18.960;2023-03-21T14:29:16;43738.47;;;-144.43;87.88
37486;BME280;23341;50.296;18.960;2023-03-21T14:34:30;43748.47;;;-144.43;87.88
37486;BME280;23341;50.296;18.960;2023-03-21T14:39:34;43746.47;;;-144.43;91.01
37486;BME280;23341;50.296;18.960;2023-03-21T14:44:40;43742.47;;;-144.43;90.83
37486;BME280;23341;50.296;18.960;2023-03-21T14:50:02;43718.53;;;-144.43;90.22
37486;BME280;23341;50.296;18.960;2023-03-21T14:55:14;43702.56;;;-144.43;92.81
37486;BME280;23341;50.296;18.960;2023-03-21T15:00:23;43686.59;;;-144.43;92.74
37486;BME280;23341;50.296;18.960;2023-03-21T15:05:32;43706.53;;;-144.43;93.53
37486;BME280;23341;50.296;18.960;2023-03-21T15:10:39;43686.59;;;-144.43;92.52
37486;BME280;23341;50.296;18.960;2023-03-21T15:15:44;43660.63;;;-144.43;95.15
37486;BME280;23341;50.296;18.960;2023-03-21T15:20:51;43642.69;;;-144.43;94.55
37486;BME280;23341;50.296;18.960;2023-03-21T15:26:00;43654.66;;;-144.43;94.48
37486;BME280;23341;50.296;18.960;2023-03-21T15:31:19;43666.63;;;-144.43;95.66
37486;BME280;23341;50.296;18.960;2023-03-21T15:36:27;43644.69;;;-144.43;95.00
37486;BME280;23341;50.296;18.960;2023-03-21T15:41:32;43602.75;;;-144.43;96.07
37486;BME280;23341;50.296;18.960;2023-03-21T15:46:41;43572.81;;;-144.43;95.59
37486;BME280;23341;50.296;18.960;2023-03-21T15:51:50;43602.75;;;-144.43;96.77
37486;BME280;23341;50.296;18.960;2023-03-21T15:56:56;43568.84;;;-144.43;96.97
37486;BME280;23341;50.296;18.960;2023-03-21T16:02:03;43594.78;;;-144.43;97.01
37486;BME280;23341;50.296;18.960;2023-03-21T16:07:14;43578.81;;;-144.43;97.98
37486;BME280;23341;50.296;18.960;2023-03-21T16:12:19;43548.88;;;-144.43;97.13
37486;BME280;23341;50.296;18.960;2023-03-21T16:17:30;43562.84;;;-144.43;96.71
37486;BME280;23341;50.296;18.960;2023-03-21T16:22:39;43510.97;;;-144.43;97.41
37486;BME280;23341;50.296;18.960;2023-03-21T16:27:43;43526.94;;;-144.43;97.20
37486;BME280;23341;50.296;18.960;2023-03-21T16:32:48;43443.09;;;-144.43;97.97
37486;BME280;23341;50.296;18.960;2023-03-21T16:37:55;43387.22;;;-144.43;96.96
37486;BME280;23341;50.296;18.960;2023-03-21T16:42:59;43331.34;;;-144.43;97.32
37486;BME280;23341;50.296;18.960;2023-03-21T16:48:04;43299.44;;;-144.43;97.63
37486;BME280;23341;50.296;18.960;2023-03-21T16:53:12;43275.47;;;-144.43;97.67
37486;BME280;23341;50.296;18.960;2023-03-21T16:58:16;43223.59;;;-144.43;98.44
37486;BME280;23341;50.296;18.960;2023-03-21T17:03:21;43161.75;;;-144.43;98.76
37486;BME280;23341;50.296;18.960;2023-03-21T17:08:27;43121.81;;;-144.43;98.72
37486;BME280;23341;50.296;18.960;2023-03-21T17:13:32;43135.78;;;-144.43;99.25
37486;BME280;23341;50.296;18.960;2023-03-21T17:18:37;43103.88;;;-144.43;98.53
37486;BME280;23341;50.296;18.960;2023-03-21T17:23:43;43079.91;;;-144.43;98.48
37486;BME280;23341;50.296;18.960;2023-03-21T17:28:47;43032.03;;;-144.43;98.96
37486;BME280;23341;50.296;18.960;2023-03-21T17:33:52;43016.06;;;-144.43;99.12
37486;BME280;23341;50.296;18.960;2023-03-21T17:38:58;43024.06;;;-144.43;99.02
37486;BME280;23341;50.296;18.960;2023-03-21T17:44:03;43016.06;;;-144.43;99.57
37486;BME280;23341;50.296;18.960;2023-03-21T17:49:11;43026.03;;;-144.43;99.21
37486;BME280;23341;50.296;18.960;2023-03-21T17:54:17;42988.13;;;-144.43;99.00
37486;BME280;23341;50.296;18.960;2023-03-21T17:59:23;42972.16;;;-144.43;98.95
37486;BME280;23341;50.296;18.960;2023-03-21T18:04:28;42972.16;;;-144.43;99.25
37486;BME280;23341;50.296;18.960;2023-03-21T18:09:34;42938.25;;;-144.43;99.82
37486;BME280;23341;50.296;18.960;2023-03-21T18:14:38;42916.28;;;-144.43;100.00
37486;BME280;23341;50.296;18.960;2023-03-21T18:19:42;42894.34;;;-144.43;100.00
37486;BME280;23341;50.296;18.960;2023-03-21T18:24:49;42842.47;;;-144.43;100.00
37486;BME280;23341;50.296;18.960;2023-03-21T18:29:54;42824.50;;;-144.43;100.00
37486;BME280;23341;50.296;18.960;2023-03-21T18:35:18;42810.53;;;-144.43;100.00
37486;BME280;23341;50.296;18.960;2023-03-21T18:40:26;42764.66;;;-144.43;100.00
37486;BME280;23341;50.296;18.960;2023-03-21T18:45:31;42768.66;;;-144.43;100.00
37486;BME280;23341;50.296;18.960;2023-03-21T18:50:35;42744.69;;;-144.43;100.00
37486;BME280;23341;50.296;18.960;2023-03-21T18:55:42;42740.72;;;-144.43;100.00
37486;BME280;23341;50.296;18.960;2023-03-21T19:00:49;42688.84;;;-144.43;100.00
37486;BME280;23341;50.296;18.960;2023-03-21T19:05:57;42672.88;;;-144.43;100.00
37486;BME280;23341;50.296;18.960;2023-03-21T19:11:03;42692.81;;;-144.43;100.00
37486;BME280;23341;50.296;18.960;2023-03-21T19:16:09;42674.88;;;-144.43;100.00
37486;BME280;23341;50.296;18.960;2023-03-21T19:21:13;42662.91;;;-144.43;100.00
37486;BME280;23341;50.296;18.960;2023-03-21T19:26:20;42628.97;;;-144.43;100.00
37486;BME280;23341;50.296;18.960;2023-03-21T19:31:25;42585.06;;;-144.43;100.00
37486;BME280;23341;50.296;18.960;2023-03-21T19:36:29;42543.19;;;-144.43;100.00
37486;BME280;23341;50.296;18.960;2023-03-21T19:41:38;42399.53;;;-144.43;100.00
37486;BME280;23341;50.296;18.960;2023-03-21T19:46:42;42233.94;;;-144.43;100.00
37486;BME280;23341;50.296;18.960;2023-03-21T19:51:47;42158.13;;;-144.43;100.00
37486;BME280;23341;50.296;18.960;2023-03-21T19:56:54;42024.47;;;-144.43;100.00
37486;BME280;23341;50.296;18.960;2023-03-21T20:02:00;41850.91;;;-144.43;100.00
37486;BME280;23341;50.296;18.960;2023-03-21T20:07:25;41767.13;;;-144.43;100.00
37486;BME280;23341;50.296;18.960;2023-03-21T20:12:31;41595.59;;;-144.43;100.00
37486;BME280;23341;50.296;18.960;2023-03-21T20:17:35;41611.53;;;-144.43;100.00
37486;BME280;23341;50.296;18.960;2023-03-21T20:22:40;41579.63;;;-144.43;100.00
37486;BME280;23341;50.296;18.960;2023-03-21T20:28:06;41575.63;;;-144.43;100.00
37486;BME280;23341;50.296;18.960;2023-03-21T20:33:28;41555.69;;;-144.43;100.00
37486;BME280;23341;50.296;18.960;2023-03-21T20:38:34;41569.66;;;-144.43;100.00
37486;BME280;23341;50.296;18.960;2023-03-21T20:43:40;41537.75;;;-144.43;100.00
37486;BME280;23341;50.296;18.960;2023-03-21T20:49:05;41505.81;;;-144.43;100.00
37486;BME280;23341;50.296;18.960;2023-03-21T20:54:09;41475.91;;;-144.43;100.00
37486;BME280;23341;50.296;18.960;2023-03-21T20:59:15;41444.00;;;-144.43;100.00
37486;BME280;23341;50.296;18.960;2023-03-21T21:04:29;41380.16;;;-144.43;100.00
37486;BME280;23341;50.296;18.960;2023-03-21T21:09:54;41392.13;;;-144.43;100.00
37486;BME280;23341;50.296;18.960;2023-03-21T21:15:01;41352.25;;;-144.43;100.00
37486;BME280;23341;50.296;18.960;2023-03-21T21:20:07;41254.50;;;-144.43;100.00
37486;BME280;23341;50.296;18.960;2023-03-21T21:25:19;41246.53;;;-144.43;100.00
37486;BME280;23341;50.296;18.960;2023-03-21T21:30:31;41208.63;;;-144.43;100.00
37486;BME280;23341;50.296;18.960;2023-03-21T21:35:36;41184.69;;;-144.43;100.00
37486;BME280;23341;50.296;18.960;2023-03-21T21:40:40;41152.78;;;-144.43;100.00
37486;BME280;23341;50.296;18.960;2023-03-21T21:45:47;41086.97;;;-144.43;100.00
37486;BME280;23341;50.296;18.960;2023-03-21T21:50:52;41057.06;;;-144.43;100.00
37486;BME280;23341;50.296;18.960;2023-03-21T21:55:57;41009.19;;;-144.43;100.00
37486;BME280;23341;50.296;18.960;2023-03-21T22:01:05;40925.41;;;-144.43;100.00
37486;BME280;23341;50.296;18.960;2023-03-21T22:06:11;40911.47;;;-144.43;100.00
37486;BME280;23341;50.296;18.960;2023-03-21T22:11:15;40925.41;;;-144.43;100.00
37486;BME280;23341;50.296;18.960;2023-03-21T22:16:21;40873.56;;;-144.43;100.00
37486;BME280;23341;50.296;18.960;2023-03-21T22:21:26;40881.53;;;-144.43;100.00
37486;BME280;23341;50.296;18.960;2023-03-21T22:26:30;40861.59;;;-144.43;100.00
37486;BME280;23341;50.296;18.960;2023-03-21T22:31:38;40953.34;;;-144.43;100.00
37486;BME280;23341;50.296;18.960;2023-03-21T22:36:44;40819.72;;;-144.43;100.00
37486;BME280;23341;50.296;18.960;2023-03-21T22:41:48;40698.06;;;-144.43;100.00
37486;BME280;23341;50.296;18.960;2023-03-21T22:46:54;40670.16;;;-144.43;100.00
37486;BME280;23341;50.296;18.960;2023-03-21T22:51:59;40315.19;;;-144.43;100.00
37486;BME280;23341;50.296;18.960;2023-03-21T22:57:05;40111.81;;;-144.43;100.00
37486;BME280;23341;50.296;18.960;2023-03-21T23:02:12;40063.94;;;-144.43;100.00
37486;BME280;23341;50.296;18.960;2023-03-21T23:07:17;40012.09;;;-144.43;100.00
37486;BME280;23341;50.296;18.960;2023-03-21T23:12:21;40020.09;;;-144.43;100.00
37486;BME280;23341;50.296;18.960;2023-03-21T23:17:27;40020.09;;;-144.43;100.00
37486;BME280;23341;50.296;18.960;2023-03-21T23:22:32;39984.19;;;-144.43;100.00
37486;BME280;23341;50.296;18.960;2023-03-21T23:27:37;39996.16;;;-144.43;100.00
37486;BME280;23341;50.296;18.960;2023-03-21T23:32:43;40004.13;;;-144.43;100.00
37486;BME280;23341;50.296;18.960;2023-03-21T23:37:47;40000.16;;;-144.43;100.00
37486;BME280;23341;50.296;18.960;2023-03-21T23:42:54;40020.09;;;-144.43;100.00
37486;BME280;23341;50.296;18.960;2023-03-21T23:48:00;40089.88;;;-144.43;100.00
37486;BME280;23341;50.296;18.960;2023-03-21T23:53:04;40053.97;;;-144.43;100.00
37486;BME280;23341;50.296;18.960;2023-03-21T23:58:09;40042.00;;;-144.43;100.00
